This is the latest recevied weather packets stored in our database for station/object YO6LRV-3. If no packets are shown the sender has not sent any weather packets the latest 10 day(s).
| Time | Temp. | Humidity | Pressure | Rain* | Wind** | Luminosity | Snow |
|---|---|---|---|---|---|---|---|
| 1787934431 | 22.22° C | 44% | 1019.8 hPa | - | - | - | - |
| 1787933530 | 22.78° C | 42% | 1020 hPa | - | - | - | - |
| 1787932630 | 22.78° C | 41% | 1020 hPa | - | - | - | - |
| 1787931730 | 23.33° C | 40% | 1020.1 hPa | - | - | - | - |
| 1787923622 | 25.56° C | 43% | 1020.4 hPa | - | - | - | - |
| 1787921824 | 26.11° C | 39% | 1020.7 hPa | - | - | - | - |
| 1787912823 | 22.78° C | 51% | 1021.4 hPa | - | - | - | - |
| 1787911923 | 21.11° C | 55% | 1021.6 hPa | - | - | - | - |
| 1787911023 | 20.56° C | 58% | 1021.6 hPa | - | - | - | - |
| 1787910123 | 20° C | 60% | 1021.8 hPa | - | - | - | - |
| 1787909222 | 20° C | 64% | 1021.9 hPa | - | - | - | - |
| 1787907429 | 18.89° C | 66% | 1022.1 hPa | - | - | - | - |
| 1787904722 | 17.78° C | 74% | 1022 hPa | - | - | - | - |
| 1787902921 | 16.67° C | 79% | 1021.9 hPa | - | - | - | - |
| 1787902021 | 16.67° C | 81% | 1022 hPa | - | - | - | - |
| 1787900223 | 15.56° C | 83% | 1022.1 hPa | - | - | - | - |
| 1787899329 | 15.56° C | 84% | 1022.1 hPa | - | - | - | - |
| 1787898423 | 15° C | 88% | 1021.8 hPa | - | - | - | - |
| 1787897523 | 14.44° C | 90% | 1021.8 hPa | - | - | - | - |
| 1787896623 | 14.44° C | 90% | 1021.7 hPa | - | - | - | - |
| 1787895725 | 13.89° C | 92% | 1021.7 hPa | - | - | - | - |
| 1787894828 | 13.89° C | 93% | 1021.5 hPa | - | - | - | - |
| 1787893922 | 13.33° C | 94% | 1021.2 hPa | - | - | - | - |
| 1787893022 | 13.33° C | 98% | 1021.2 hPa | - | - | - | - |
| 1787892122 | 13.33° C | 100% | 1021.1 hPa | - | - | - | - |
* Rain since midnight (hover to see other rain measurements)
** Current wind speed in m/s (hover to see current wind gust speed)